sensor_id;sensor_type;location;lat;lon;timestamp;P1;durP1;ratioP1;P2;durP2;ratioP2
69172;SDS011;56280;49.662;8.408;2023-04-07T00:01:12;34.57;;;31.37;;
69172;SDS011;56280;49.662;8.408;2023-04-07T00:03:38;33.37;;;29.97;;
69172;SDS011;56280;49.662;8.408;2023-04-07T00:06:04;35.67;;;32.37;;
69172;SDS011;56280;49.662;8.408;2023-04-07T00:08:30;33.17;;;29.98;;
69172;SDS011;56280;49.662;8.408;2023-04-07T00:10:55;33.83;;;30.63;;
69172;SDS011;56280;49.662;8.408;2023-04-07T00:13:21;33.73;;;30.43;;
69172;SDS011;56280;49.662;8.408;2023-04-07T00:15:46;33.70;;;30.50;;
69172;SDS011;56280;49.662;8.408;2023-04-07T00:18:12;33.37;;;30.07;;
69172;SDS011;56280;49.662;8.408;2023-04-07T00:20:37;34.07;;;30.97;;
69172;SDS011;56280;49.662;8.408;2023-04-07T00:23:02;33.00;;;29.90;;
69172;SDS011;56280;49.662;8.408;2023-04-07T00:25:27;35.23;;;32.00;;
69172;SDS011;56280;49.662;8.408;2023-04-07T00:27:53;34.00;;;30.90;;
69172;SDS011;56280;49.662;8.408;2023-04-07T00:30:18;34.03;;;30.83;;
69172;SDS011;56280;49.662;8.408;2023-04-07T00:32:43;34.30;;;31.30;;
69172;SDS011;56280;49.662;8.408;2023-04-07T00:35:08;34.30;;;31.10;;
69172;SDS011;56280;49.662;8.408;2023-04-07T00:37:34;33.80;;;30.70;;
69172;SDS011;56280;49.662;8.408;2023-04-07T00:39:59;32.70;;;29.67;;
69172;SDS011;56280;49.662;8.408;2023-04-07T00:42:26;33.72;;;30.52;;
69172;SDS011;56280;49.662;8.408;2023-04-07T00:44:51;33.77;;;30.57;;
69172;SDS011;56280;49.662;8.408;2023-04-07T00:47:17;35.27;;;31.97;;
69172;SDS011;56280;49.662;8.408;2023-04-07T00:49:42;33.13;;;30.00;;
69172;SDS011;56280;49.662;8.408;2023-04-07T00:52:08;32.47;;;29.43;;
69172;SDS011;56280;49.662;8.408;2023-04-07T00:54:38;34.13;;;31.00;;
69172;SDS011;56280;49.662;8.408;2023-04-07T00:57:05;32.35;;;29.42;;
69172;SDS011;56280;49.662;8.408;2023-04-07T00:59:31;31.93;;;28.83;;
69172;SDS011;56280;49.662;8.408;2023-04-07T01:02:14;32.57;;;29.37;;
69172;SDS011;56280;49.662;8.408;2023-04-07T01:04:48;32.40;;;29.40;;
69172;SDS011;56280;49.662;8.408;2023-04-07T01:07:22;31.60;;;28.75;;
69172;SDS011;56280;49.662;8.408;2023-04-07T01:09:56;31.35;;;28.42;;
69172;SDS011;56280;49.662;8.408;2023-04-07T01:15:06;32.50;;;29.52;;
69172;SDS011;56280;49.662;8.408;2023-04-07T01:17:34;32.03;;;29.13;;
69172;SDS011;56280;49.662;8.408;2023-04-07T01:20:04;31.27;;;28.48;;
69172;SDS011;56280;49.662;8.408;2023-04-07T01:22:32;30.67;;;27.90;;
69172;SDS011;56280;49.662;8.408;2023-04-07T01:30:49;29.92;;;27.33;;
69172;SDS011;56280;49.662;8.408;2023-04-07T01:33:19;32.70;;;29.80;;
69172;SDS011;56280;49.662;8.408;2023-04-07T01:35:45;30.80;;;28.05;;
69172;SDS011;56280;49.662;8.408;2023-04-07T01:38:10;32.40;;;29.50;;
69172;SDS011;56280;49.662;8.408;2023-04-07T01:40:37;31.00;;;28.20;;
69172;SDS011;56280;49.662;8.408;2023-04-07T01:43:03;30.73;;;27.95;;
69172;SDS011;56280;49.662;8.408;2023-04-07T01:45:30;29.67;;;26.92;;
69172;SDS011;56280;49.662;8.408;2023-04-07T01:47:58;30.48;;;27.63;;
69172;SDS011;56280;49.662;8.408;2023-04-07T01:50:25;30.80;;;27.98;;
69172;SDS011;56280;49.662;8.408;2023-04-07T01:52:51;30.30;;;27.60;;
69172;SDS011;56280;49.662;8.408;2023-04-07T01:55:17;30.63;;;27.80;;
69172;SDS011;56280;49.662;8.408;2023-04-07T01:57:43;30.70;;;27.87;;
69172;SDS011;56280;49.662;8.408;2023-04-07T02:00:08;30.33;;;27.53;;
69172;SDS011;56280;49.662;8.408;2023-04-07T02:02:35;31.23;;;28.42;;
69172;SDS011;56280;49.662;8.408;2023-04-07T02:05:05;30.70;;;27.80;;
69172;SDS011;56280;49.662;8.408;2023-04-07T02:10:14;31.05;;;28.05;;
69172;SDS011;56280;49.662;8.408;2023-04-07T02:12:41;30.63;;;27.83;;
69172;SDS011;56280;49.662;8.408;2023-04-07T02:15:10;31.95;;;29.10;;
69172;SDS011;56280;49.662;8.408;2023-04-07T02:17:39;30.20;;;27.42;;
69172;SDS011;56280;49.662;8.408;2023-04-07T02:20:08;32.50;;;29.60;;
69172;SDS011;56280;49.662;8.408;2023-04-07T02:22:37;30.88;;;27.98;;
69172;SDS011;56280;49.662;8.408;2023-04-07T02:25:19;31.65;;;28.85;;
69172;SDS011;56280;49.662;8.408;2023-04-07T02:27:54;30.35;;;27.35;;
69172;SDS011;56280;49.662;8.408;2023-04-07T02:30:21;30.57;;;27.87;;
69172;SDS011;56280;49.662;8.408;2023-04-07T02:32:46;30.05;;;27.20;;
69172;SDS011;56280;49.662;8.408;2023-04-07T02:35:11;29.95;;;27.15;;
69172;SDS011;56280;49.662;8.408;2023-04-07T02:37:37;29.83;;;27.00;;
69172;SDS011;56280;49.662;8.408;2023-04-07T02:40:03;30.45;;;27.67;;
69172;SDS011;56280;49.662;8.408;2023-04-07T02:42:30;30.08;;;27.23;;
69172;SDS011;56280;49.662;8.408;2023-04-07T02:44:55;32.63;;;29.67;;
69172;SDS011;56280;49.662;8.408;2023-04-07T02:47:21;31.20;;;28.40;;
69172;SDS011;56280;49.662;8.408;2023-04-07T02:49:46;31.13;;;28.33;;
69172;SDS011;56280;49.662;8.408;2023-04-07T02:52:11;30.70;;;27.90;;
69172;SDS011;56280;49.662;8.408;2023-04-07T02:54:36;32.10;;;29.10;;
69172;SDS011;56280;49.662;8.408;2023-04-07T02:57:02;31.27;;;28.37;;
69172;SDS011;56280;49.662;8.408;2023-04-07T02:59:27;30.27;;;27.47;;
69172;SDS011;56280;49.662;8.408;2023-04-07T03:01:52;30.67;;;27.83;;
69172;SDS011;56280;49.662;8.408;2023-04-07T03:04:17;31.63;;;28.67;;
69172;SDS011;56280;49.662;8.408;2023-04-07T03:06:43;30.70;;;27.90;;
69172;SDS011;56280;49.662;8.408;2023-04-07T03:09:08;29.80;;;26.90;;
69172;SDS011;56280;49.662;8.408;2023-04-07T03:11:33;30.57;;;27.70;;
69172;SDS011;56280;49.662;8.408;2023-04-07T03:13:58;30.33;;;27.53;;
69172;SDS011;56280;49.662;8.408;2023-04-07T03:16:24;30.87;;;28.03;;
69172;SDS011;56280;49.662;8.408;2023-04-07T03:18:49;29.60;;;26.90;;
69172;SDS011;56280;49.662;8.408;2023-04-07T03:21:14;31.50;;;28.70;;
69172;SDS011;56280;49.662;8.408;2023-04-07T03:23:40;30.67;;;27.77;;
69172;SDS011;56280;49.662;8.408;2023-04-07T03:26:05;30.87;;;27.97;;
69172;SDS011;56280;49.662;8.408;2023-04-07T03:28:30;31.30;;;28.37;;
69172;SDS011;56280;49.662;8.408;2023-04-07T03:30:55;31.63;;;28.53;;
69172;SDS011;56280;49.662;8.408;2023-04-07T03:33:21;34.70;;;31.60;;
69172;SDS011;56280;49.662;8.408;2023-04-07T03:35:46;33.10;;;30.10;;
69172;SDS011;56280;49.662;8.408;2023-04-07T03:38:11;31.43;;;28.53;;
69172;SDS011;56280;49.662;8.408;2023-04-07T03:40:37;31.17;;;28.33;;
69172;SDS011;56280;49.662;8.408;2023-04-07T03:43:02;34.73;;;31.53;;
69172;SDS011;56280;49.662;8.408;2023-04-07T03:45:27;31.93;;;29.03;;
69172;SDS011;56280;49.662;8.408;2023-04-07T03:47:52;32.93;;;30.03;;
69172;SDS011;56280;49.662;8.408;2023-04-07T03:50:18;32.03;;;28.97;;
69172;SDS011;56280;49.662;8.408;2023-04-07T03:52:43;32.03;;;28.93;;
69172;SDS011;56280;49.662;8.408;2023-04-07T03:55:08;31.10;;;28.20;;
69172;SDS011;56280;49.662;8.408;2023-04-07T03:57:34;32.23;;;29.23;;
69172;SDS011;56280;49.662;8.408;2023-04-07T03:59:59;31.60;;;28.70;;
69172;SDS011;56280;49.662;8.408;2023-04-07T04:02:24;31.30;;;28.43;;
69172;SDS011;56280;49.662;8.408;2023-04-07T04:04:50;31.10;;;28.10;;
69172;SDS011;56280;49.662;8.408;2023-04-07T04:07:15;32.20;;;29.10;;
69172;SDS011;56280;49.662;8.408;2023-04-07T04:09:40;31.98;;;28.98;;
69172;SDS011;56280;49.662;8.408;2023-04-07T04:12:06;30.85;;;27.95;;
69172;SDS011;56280;49.662;8.408;2023-04-07T04:14:31;30.73;;;27.80;;
69172;SDS011;56280;49.662;8.408;2023-04-07T04:16:56;31.47;;;28.37;;
69172;SDS011;56280;49.662;8.408;2023-04-07T04:19:21;31.63;;;28.53;;
69172;SDS011;56280;49.662;8.408;2023-04-07T04:21:47;34.53;;;31.33;;
69172;SDS011;56280;49.662;8.408;2023-04-07T04:24:12;33.80;;;30.60;;
69172;SDS011;56280;49.662;8.408;2023-04-07T04:26:37;33.23;;;30.23;;
69172;SDS011;56280;49.662;8.408;2023-04-07T04:29:02;34.00;;;30.80;;
69172;SDS011;56280;49.662;8.408;2023-04-07T04:31:28;34.17;;;30.83;;
69172;SDS011;56280;49.662;8.408;2023-04-07T04:33:53;35.00;;;31.80;;
69172;SDS011;56280;49.662;8.408;2023-04-07T04:36:18;33.17;;;29.80;;
69172;SDS011;56280;49.662;8.408;2023-04-07T04:38:43;34.80;;;31.40;;
69172;SDS011;56280;49.662;8.408;2023-04-07T04:41:09;32.90;;;29.90;;
69172;SDS011;56280;49.662;8.408;2023-04-07T04:43:34;35.90;;;32.50;;
69172;SDS011;56280;49.662;8.408;2023-04-07T04:45:59;33.50;;;30.40;;
69172;SDS011;56280;49.662;8.408;2023-04-07T04:48:25;31.93;;;29.10;;
69172;SDS011;56280;49.662;8.408;2023-04-07T04:50:51;32.60;;;29.60;;
69172;SDS011;56280;49.662;8.408;2023-04-07T04:53:16;31.83;;;28.83;;
69172;SDS011;56280;49.662;8.408;2023-04-07T04:55:41;33.40;;;30.40;;
69172;SDS011;56280;49.662;8.408;2023-04-07T04:58:11;32.60;;;29.58;;
69172;SDS011;56280;49.662;8.408;2023-04-07T05:00:36;32.23;;;29.17;;
69172;SDS011;56280;49.662;8.408;2023-04-07T05:03:01;32.20;;;29.23;;
69172;SDS011;56280;49.662;8.408;2023-04-07T05:05:27;32.47;;;29.23;;
69172;SDS011;56280;49.662;8.408;2023-04-07T05:07:52;34.50;;;31.17;;
69172;SDS011;56280;49.662;8.408;2023-04-07T05:10:18;34.65;;;31.13;;
69172;SDS011;56280;49.662;8.408;2023-04-07T05:12:43;35.58;;;31.88;;
69172;SDS011;56280;49.662;8.408;2023-04-07T05:15:08;33.73;;;30.43;;
69172;SDS011;56280;49.662;8.408;2023-04-07T05:17:34;34.22;;;30.92;;
69172;SDS011;56280;49.662;8.408;2023-04-07T05:19:59;34.77;;;31.50;;
69172;SDS011;56280;49.662;8.408;2023-04-07T05:22:25;34.40;;;31.20;;
69172;SDS011;56280;49.662;8.408;2023-04-07T05:24:50;33.77;;;30.50;;
69172;SDS011;56280;49.662;8.408;2023-04-07T05:27:15;34.40;;;31.30;;
69172;SDS011;56280;49.662;8.408;2023-04-07T05:29:41;32.90;;;29.80;;
69172;SDS011;56280;49.662;8.408;2023-04-07T05:32:06;33.17;;;30.03;;
69172;SDS011;56280;49.662;8.408;2023-04-07T05:34:31;33.93;;;30.83;;
69172;SDS011;56280;49.662;8.408;2023-04-07T05:36:56;34.20;;;31.00;;
69172;SDS011;56280;49.662;8.408;2023-04-07T05:39:22;32.50;;;29.50;;
69172;SDS011;56280;49.662;8.408;2023-04-07T05:41:47;32.17;;;29.17;;
69172;SDS011;56280;49.662;8.408;2023-04-07T05:44:12;31.23;;;28.43;;
69172;SDS011;56280;49.662;8.408;2023-04-07T05:46:38;32.17;;;29.27;;
69172;SDS011;56280;49.662;8.408;2023-04-07T05:49:03;31.75;;;28.95;;
69172;SDS011;56280;49.662;8.408;2023-04-07T05:51:28;31.70;;;28.90;;
69172;SDS011;56280;49.662;8.408;2023-04-07T05:53:55;32.95;;;30.05;;
69172;SDS011;56280;49.662;8.408;2023-04-07T05:56:20;31.60;;;28.83;;
69172;SDS011;56280;49.662;8.408;2023-04-07T05:58:45;31.27;;;28.37;;
69172;SDS011;56280;49.662;8.408;2023-04-07T06:01:11;30.40;;;27.70;;
69172;SDS011;56280;49.662;8.408;2023-04-07T06:03:36;29.90;;;27.30;;
69172;SDS011;56280;49.662;8.408;2023-04-07T06:06:01;31.00;;;28.20;;
69172;SDS011;56280;49.662;8.408;2023-04-07T06:08:27;32.75;;;29.80;;
69172;SDS011;56280;49.662;8.408;2023-04-07T06:10:52;30.88;;;28.08;;
69172;SDS011;56280;49.662;8.408;2023-04-07T06:13:18;30.50;;;27.80;;
69172;SDS011;56280;49.662;8.408;2023-04-07T06:15:44;30.75;;;28.15;;
69172;SDS011;56280;49.662;8.408;2023-04-07T06:18:10;31.43;;;28.63;;
69172;SDS011;56280;49.662;8.408;2023-04-07T06:20:35;30.07;;;27.33;;
69172;SDS011;56280;49.662;8.408;2023-04-07T06:23:00;30.47;;;27.77;;
69172;SDS011;56280;49.662;8.408;2023-04-07T06:25:26;29.37;;;26.87;;
69172;SDS011;56280;49.662;8.408;2023-04-07T06:27:52;31.13;;;28.23;;
69172;SDS011;56280;49.662;8.408;2023-04-07T06:30:17;29.92;;;27.33;;
69172;SDS011;56280;49.662;8.408;2023-04-07T06:32:43;29.63;;;26.93;;
69172;SDS011;56280;49.662;8.408;2023-04-07T06:35:08;31.33;;;28.63;;
69172;SDS011;56280;49.662;8.408;2023-04-07T06:37:34;29.07;;;26.47;;
69172;SDS011;56280;49.662;8.408;2023-04-07T06:39:59;30.30;;;27.45;;
69172;SDS011;56280;49.662;8.408;2023-04-07T06:42:25;29.67;;;26.97;;
69172;SDS011;56280;49.662;8.408;2023-04-07T06:44:50;30.27;;;27.47;;
69172;SDS011;56280;49.662;8.408;2023-04-07T06:47:17;27.65;;;25.05;;
69172;SDS011;56280;49.662;8.408;2023-04-07T06:49:42;27.83;;;25.27;;
69172;SDS011;56280;49.662;8.408;2023-04-07T06:52:08;25.83;;;23.33;;
69172;SDS011;56280;49.662;8.408;2023-04-07T06:54:33;23.30;;;21.10;;
69172;SDS011;56280;49.662;8.408;2023-04-07T06:56:59;25.10;;;22.53;;
69172;SDS011;56280;49.662;8.408;2023-04-07T06:59:25;24.27;;;21.98;;
69172;SDS011;56280;49.662;8.408;2023-04-07T07:01:50;22.73;;;20.40;;
69172;SDS011;56280;49.662;8.408;2023-04-07T07:04:16;21.00;;;18.37;;
69172;SDS011;56280;49.662;8.408;2023-04-07T07:06:41;20.90;;;15.80;;
69172;SDS011;56280;49.662;8.408;2023-04-07T07:09:07;23.03;;;15.37;;
69172;SDS011;56280;49.662;8.408;2023-04-07T07:11:32;20.17;;;15.53;;
69172;SDS011;56280;49.662;8.408;2023-04-07T07:13:57;19.57;;;13.77;;
69172;SDS011;56280;49.662;8.408;2023-04-07T07:16:23;19.90;;;14.40;;
69172;SDS011;56280;49.662;8.408;2023-04-07T07:18:49;22.88;;;14.43;;
69172;SDS011;56280;49.662;8.408;2023-04-07T07:21:16;20.70;;;13.50;;
69172;SDS011;56280;49.662;8.408;2023-04-07T07:23:41;19.77;;;12.60;;
69172;SDS011;56280;49.662;8.408;2023-04-07T07:26:07;16.37;;;12.07;;
69172;SDS011;56280;49.662;8.408;2023-04-07T07:28:32;17.13;;;12.25;;
69172;SDS011;56280;49.662;8.408;2023-04-07T07:30:57;17.80;;;12.03;;
69172;SDS011;56280;49.662;8.408;2023-04-07T07:33:22;16.90;;;11.43;;
69172;SDS011;56280;49.662;8.408;2023-04-07T07:35:48;16.40;;;11.93;;
69172;SDS011;56280;49.662;8.408;2023-04-07T07:38:13;16.40;;;12.07;;
69172;SDS011;56280;49.662;8.408;2023-04-07T07:40:38;15.97;;;10.73;;
69172;SDS011;56280;49.662;8.408;2023-04-07T07:43:04;16.70;;;11.20;;
69172;SDS011;56280;49.662;8.408;2023-04-07T07:45:30;14.73;;;11.15;;
69172;SDS011;56280;49.662;8.408;2023-04-07T07:47:55;15.57;;;11.30;;
69172;SDS011;56280;49.662;8.408;2023-04-07T07:50:20;16.60;;;10.80;;
69172;SDS011;56280;49.662;8.408;2023-04-07T07:52:46;16.90;;;11.27;;
69172;SDS011;56280;49.662;8.408;2023-04-07T07:55:11;14.67;;;10.97;;
69172;SDS011;56280;49.662;8.408;2023-04-07T07:57:37;15.23;;;10.20;;
69172;SDS011;56280;49.662;8.408;2023-04-07T08:00:02;14.93;;;10.60;;
69172;SDS011;56280;49.662;8.408;2023-04-07T08:02:28;14.18;;;10.30;;
69172;SDS011;56280;49.662;8.408;2023-04-07T08:04:56;16.20;;;11.03;;
69172;SDS011;56280;49.662;8.408;2023-04-07T08:07:21;15.05;;;10.95;;
69172;SDS011;56280;49.662;8.408;2023-04-07T08:09:47;14.45;;;10.30;;
69172;SDS011;56280;49.662;8.408;2023-04-07T08:12:13;17.10;;;11.13;;
69172;SDS011;56280;49.662;8.408;2023-04-07T08:14:39;15.13;;;10.20;;
69172;SDS011;56280;49.662;8.408;2023-04-07T08:17:04;15.43;;;10.67;;
69172;SDS011;56280;49.662;8.408;2023-04-07T08:19:30;15.17;;;11.07;;
69172;SDS011;56280;49.662;8.408;2023-04-07T08:21:55;14.30;;;10.43;;
69172;SDS011;56280;49.662;8.408;2023-04-07T08:24:20;13.93;;;10.43;;
69172;SDS011;56280;49.662;8.408;2023-04-07T08:26:46;14.80;;;10.63;;
69172;SDS011;56280;49.662;8.408;2023-04-07T08:29:11;15.60;;;10.73;;
69172;SDS011;56280;49.662;8.408;2023-04-07T08:31:36;16.13;;;10.63;;
69172;SDS011;56280;49.662;8.408;2023-04-07T08:34:02;14.07;;;10.27;;
69172;SDS011;56280;49.662;8.408;2023-04-07T08:36:27;14.83;;;10.93;;
69172;SDS011;56280;49.662;8.408;2023-04-07T08:38:54;14.70;;;10.63;;
69172;SDS011;56280;49.662;8.408;2023-04-07T08:41:23;16.40;;;11.13;;
69172;SDS011;56280;49.662;8.408;2023-04-07T08:43:55;14.68;;;11.32;;
69172;SDS011;56280;49.662;8.408;2023-04-07T08:46:21;14.27;;;10.70;;
69172;SDS011;56280;49.662;8.408;2023-04-07T08:48:50;15.27;;;10.60;;
69172;SDS011;56280;49.662;8.408;2023-04-07T08:51:17;14.50;;;10.43;;
69172;SDS011;56280;49.662;8.408;2023-04-07T08:53:52;14.93;;;10.63;;
69172;SDS011;56280;49.662;8.408;2023-04-07T08:56:18;15.27;;;10.50;;
69172;SDS011;56280;49.662;8.408;2023-04-07T08:58:46;18.00;;;11.93;;
69172;SDS011;56280;49.662;8.408;2023-04-07T09:01:12;13.60;;;9.80;;
69172;SDS011;56280;49.662;8.408;2023-04-07T09:03:37;14.67;;;10.20;;
69172;SDS011;56280;49.662;8.408;2023-04-07T09:06:03;14.90;;;10.50;;
69172;SDS011;56280;49.662;8.408;2023-04-07T09:08:28;13.75;;;10.20;;
69172;SDS011;56280;49.662;8.408;2023-04-07T09:10:55;17.07;;;10.83;;
69172;SDS011;56280;49.662;8.408;2023-04-07T09:13:21;21.17;;;11.90;;
69172;SDS011;56280;49.662;8.408;2023-04-07T09:15:47;11.57;;;9.00;;
69172;SDS011;56280;49.662;8.408;2023-04-07T09:18:13;12.40;;;9.40;;
69172;SDS011;56280;49.662;8.408;2023-04-07T09:20:55;14.95;;;9.90;;
69172;SDS011;56280;49.662;8.408;2023-04-07T09:23:35;13.13;;;9.88;;
69172;SDS011;56280;49.662;8.408;2023-04-07T09:28:47;14.98;;;10.60;;
69172;SDS011;56280;49.662;8.408;2023-04-07T09:31:14;16.48;;;11.18;;
69172;SDS011;56280;49.662;8.408;2023-04-07T09:33:40;14.65;;;10.48;;
69172;SDS011;56280;49.662;8.408;2023-04-07T09:36:06;14.33;;;11.20;;
69172;SDS011;56280;49.662;8.408;2023-04-07T09:38:32;14.13;;;10.43;;
69172;SDS011;56280;49.662;8.408;2023-04-07T09:41:05;15.20;;;11.00;;
69172;SDS011;56280;49.662;8.408;2023-04-07T09:43:39;13.60;;;10.65;;
69172;SDS011;56280;49.662;8.408;2023-04-07T09:46:06;14.38;;;10.25;;
69172;SDS011;56280;49.662;8.408;2023-04-07T09:48:35;13.15;;;10.15;;
69172;SDS011;56280;49.662;8.408;2023-04-07T09:51:05;11.07;;;8.40;;
69172;SDS011;56280;49.662;8.408;2023-04-07T09:53:41;13.33;;;9.00;;
69172;SDS011;56280;49.662;8.408;2023-04-07T09:56:19;13.07;;;9.07;;
69172;SDS011;56280;49.662;8.408;2023-04-07T09:58:49;12.98;;;10.07;;
69172;SDS011;56280;49.662;8.408;2023-04-07T10:01:18;13.20;;;9.10;;
69172;SDS011;56280;49.662;8.408;2023-04-07T10:03:44;10.80;;;7.97;;
69172;SDS011;56280;49.662;8.408;2023-04-07T10:06:11;13.13;;;9.32;;
69172;SDS011;56280;49.662;8.408;2023-04-07T10:08:37;12.27;;;8.90;;
69172;SDS011;56280;49.662;8.408;2023-04-07T10:11:05;10.55;;;7.55;;
69172;SDS011;56280;49.662;8.408;2023-04-07T10:13:32;11.00;;;7.30;;
69172;SDS011;56280;49.662;8.408;2023-04-07T10:15:58;9.45;;;7.07;;
69172;SDS011;56280;49.662;8.408;2023-04-07T10:18:27;9.13;;;6.10;;
69172;SDS011;56280;49.662;8.408;2023-04-07T10:20:58;11.68;;;7.50;;
69172;SDS011;56280;49.662;8.408;2023-04-07T10:26:30;8.00;;;5.70;;
69172;SDS011;56280;49.662;8.408;2023-04-07T10:29:03;8.52;;;5.80;;
69172;SDS011;56280;49.662;8.408;2023-04-07T10:31:34;7.57;;;5.22;;
69172;SDS011;56280;49.662;8.408;2023-04-07T10:34:01;7.57;;;5.15;;
69172;SDS011;56280;49.662;8.408;2023-04-07T10:36:26;8.07;;;5.53;;
69172;SDS011;56280;49.662;8.408;2023-04-07T10:41:31;9.75;;;7.00;;
69172;SDS011;56280;49.662;8.408;2023-04-07T10:43:57;8.15;;;6.03;;
69172;SDS011;56280;49.662;8.408;2023-04-07T10:46:22;7.67;;;6.13;;
69172;SDS011;56280;49.662;8.408;2023-04-07T10:51:33;8.67;;;6.53;;
69172;SDS011;56280;49.662;8.408;2023-04-07T10:54:15;7.68;;;5.95;;
69172;SDS011;56280;49.662;8.408;2023-04-07T10:59:38;9.43;;;6.70;;
69172;SDS011;56280;49.662;8.408;2023-04-07T11:04:51;7.72;;;6.05;;
69172;SDS011;56280;49.662;8.408;2023-04-07T11:07:17;8.73;;;6.70;;
69172;SDS011;56280;49.662;8.408;2023-04-07T11:09:43;9.07;;;6.67;;
69172;SDS011;56280;49.662;8.408;2023-04-07T11:12:20;9.73;;;7.45;;
69172;SDS011;56280;49.662;8.408;2023-04-07T11:14:46;9.90;;;7.43;;
69172;SDS011;56280;49.662;8.408;2023-04-07T11:17:13;10.53;;;7.33;;
69172;SDS011;56280;49.662;8.408;2023-04-07T11:19:51;9.60;;;7.65;;
69172;SDS011;56280;49.662;8.408;2023-04-07T11:22:20;10.50;;;8.23;;
69172;SDS011;56280;49.662;8.408;2023-04-07T11:24:45;9.93;;;8.15;;
69172;SDS011;56280;49.662;8.408;2023-04-07T11:27:16;10.60;;;8.30;;
69172;SDS011;56280;49.662;8.408;2023-04-07T11:29:42;10.02;;;8.00;;
69172;SDS011;56280;49.662;8.408;2023-04-07T11:32:08;10.35;;;7.50;;
69172;SDS011;56280;49.662;8.408;2023-04-07T11:34:35;11.00;;;8.35;;
69172;SDS011;56280;49.662;8.408;2023-04-07T11:39:56;11.55;;;8.52;;
69172;SDS011;56280;49.662;8.408;2023-04-07T11:42:38;11.45;;;8.50;;
69172;SDS011;56280;49.662;8.408;2023-04-07T11:45:04;11.18;;;8.43;;
69172;SDS011;56280;49.662;8.408;2023-04-07T11:47:43;11.80;;;8.63;;
69172;SDS011;56280;49.662;8.408;2023-04-07T11:50:09;11.40;;;7.83;;
69172;SDS011;56280;49.662;8.408;2023-04-07T11:52:41;10.40;;;7.55;;
69172;SDS011;56280;49.662;8.408;2023-04-07T11:55:18;11.15;;;8.02;;
69172;SDS011;56280;49.662;8.408;2023-04-07T11:57:46;10.23;;;7.75;;
69172;SDS011;56280;49.662;8.408;2023-04-07T12:00:12;9.95;;;7.32;;
69172;SDS011;56280;49.662;8.408;2023-04-07T12:02:38;8.20;;;5.93;;
69172;SDS011;56280;49.662;8.408;2023-04-07T12:05:04;8.73;;;6.30;;
69172;SDS011;56280;49.662;8.408;2023-04-07T12:07:30;8.37;;;5.80;;
69172;SDS011;56280;49.662;8.408;2023-04-07T12:09:55;8.20;;;6.07;;
69172;SDS011;56280;49.662;8.408;2023-04-07T12:12:24;8.95;;;7.85;;
69172;SDS011;56280;49.662;8.408;2023-04-07T12:14:51;10.85;;;7.45;;
69172;SDS011;56280;49.662;8.408;2023-04-07T12:17:20;9.70;;;8.73;;
69172;SDS011;56280;49.662;8.408;2023-04-07T12:19:46;10.55;;;9.55;;
69172;SDS011;56280;49.662;8.408;2023-04-07T12:22:11;9.13;;;7.73;;
69172;SDS011;56280;49.662;8.408;2023-04-07T12:24:37;7.23;;;5.90;;
69172;SDS011;56280;49.662;8.408;2023-04-07T12:27:02;7.33;;;5.77;;
69172;SDS011;56280;49.662;8.408;2023-04-07T12:29:28;8.13;;;5.60;;
69172;SDS011;56280;49.662;8.408;2023-04-07T12:31:54;7.00;;;5.00;;
69172;SDS011;56280;49.662;8.408;2023-04-07T12:34:20;7.23;;;5.00;;
69172;SDS011;56280;49.662;8.408;2023-04-07T12:36:45;8.13;;;5.53;;
69172;SDS011;56280;49.662;8.408;2023-04-07T12:39:10;8.33;;;5.40;;
69172;SDS011;56280;49.662;8.408;2023-04-07T12:41:36;8.27;;;5.60;;
69172;SDS011;56280;49.662;8.408;2023-04-07T12:44:02;8.23;;;5.93;;
69172;SDS011;56280;49.662;8.408;2023-04-07T12:46:28;8.25;;;6.00;;
69172;SDS011;56280;49.662;8.408;2023-04-07T12:48:53;8.70;;;6.17;;
69172;SDS011;56280;49.662;8.408;2023-04-07T12:51:18;8.00;;;6.10;;
69172;SDS011;56280;49.662;8.408;2023-04-07T12:53:44;8.43;;;6.13;;
69172;SDS011;56280;49.662;8.408;2023-04-07T12:56:09;8.80;;;6.57;;
69172;SDS011;56280;49.662;8.408;2023-04-07T12:58:37;9.88;;;6.60;;
69172;SDS011;56280;49.662;8.408;2023-04-07T13:01:02;8.80;;;6.60;;
69172;SDS011;56280;49.662;8.408;2023-04-07T13:03:27;8.70;;;6.03;;
69172;SDS011;56280;49.662;8.408;2023-04-07T13:05:53;8.33;;;6.07;;
69172;SDS011;56280;49.662;8.408;2023-04-07T13:08:19;6.72;;;4.53;;
69172;SDS011;56280;49.662;8.408;2023-04-07T13:10:45;7.00;;;5.20;;
69172;SDS011;56280;49.662;8.408;2023-04-07T13:13:10;6.20;;;4.53;;
69172;SDS011;56280;49.662;8.408;2023-04-07T13:15:36;6.43;;;4.90;;
69172;SDS011;56280;49.662;8.408;2023-04-07T13:18:01;7.07;;;4.87;;
69172;SDS011;56280;49.662;8.408;2023-04-07T13:20:27;6.93;;;4.85;;
69172;SDS011;56280;49.662;8.408;2023-04-07T13:22:54;6.82;;;4.90;;
69172;SDS011;56280;49.662;8.408;2023-04-07T13:25:19;6.70;;;5.07;;
69172;SDS011;56280;49.662;8.408;2023-04-07T13:27:45;6.80;;;5.10;;
69172;SDS011;56280;49.662;8.408;2023-04-07T13:30:11;7.17;;;5.20;;
69172;SDS011;56280;49.662;8.408;2023-04-07T13:32:37;7.75;;;5.85;;
69172;SDS011;56280;49.662;8.408;2023-04-07T13:35:03;7.90;;;5.63;;
69172;SDS011;56280;49.662;8.408;2023-04-07T13:37:28;8.10;;;5.50;;
69172;SDS011;56280;49.662;8.408;2023-04-07T13:39:53;9.90;;;7.20;;
69172;SDS011;56280;49.662;8.408;2023-04-07T13:42:19;9.80;;;7.63;;
69172;SDS011;56280;49.662;8.408;2023-04-07T13:44:45;9.38;;;7.32;;
69172;SDS011;56280;49.662;8.408;2023-04-07T13:47:12;8.20;;;6.17;;
69172;SDS011;56280;49.662;8.408;2023-04-07T13:49:43;7.93;;;6.35;;
69172;SDS011;56280;49.662;8.408;2023-04-07T13:52:08;7.50;;;5.83;;
69172;SDS011;56280;49.662;8.408;2023-04-07T13:54:33;6.97;;;5.80;;
69172;SDS011;56280;49.662;8.408;2023-04-07T13:56:59;7.47;;;5.40;;
69172;SDS011;56280;49.662;8.408;2023-04-07T13:59:24;7.73;;;5.70;;
69172;SDS011;56280;49.662;8.408;2023-04-07T14:01:49;6.83;;;5.10;;
69172;SDS011;56280;49.662;8.408;2023-04-07T14:04:15;6.67;;;4.87;;
69172;SDS011;56280;49.662;8.408;2023-04-07T14:06:41;8.70;;;6.03;;
69172;SDS011;56280;49.662;8.408;2023-04-07T14:09:07;7.43;;;5.68;;
69172;SDS011;56280;49.662;8.408;2023-04-07T14:11:32;8.00;;;5.90;;
69172;SDS011;56280;49.662;8.408;2023-04-07T14:13:59;7.73;;;6.07;;
69172;SDS011;56280;49.662;8.408;2023-04-07T14:16:25;8.18;;;6.22;;
69172;SDS011;56280;49.662;8.408;2023-04-07T14:18:50;8.90;;;8.00;;
69172;SDS011;56280;49.662;8.408;2023-04-07T14:21:15;9.70;;;8.70;;
69172;SDS011;56280;49.662;8.408;2023-04-07T14:23:41;11.32;;;10.23;;
69172;SDS011;56280;49.662;8.408;2023-04-07T14:26:10;12.85;;;11.75;;
69172;SDS011;56280;49.662;8.408;2023-04-07T14:28:35;10.82;;;9.80;;
69172;SDS011;56280;49.662;8.408;2023-04-07T14:31:01;6.85;;;5.55;;
69172;SDS011;56280;49.662;8.408;2023-04-07T14:33:26;7.65;;;6.50;;
69172;SDS011;56280;49.662;8.408;2023-04-07T14:35:52;11.73;;;10.53;;
69172;SDS011;56280;49.662;8.408;2023-04-07T14:38:17;12.50;;;11.50;;
69172;SDS011;56280;49.662;8.408;2023-04-07T14:40:42;11.83;;;10.83;;
69172;SDS011;56280;49.662;8.408;2023-04-07T14:43:09;11.40;;;10.48;;
69172;SDS011;56280;49.662;8.408;2023-04-07T14:45:34;11.73;;;10.73;;
69172;SDS011;56280;49.662;8.408;2023-04-07T14:47:59;11.93;;;10.93;;
69172;SDS011;56280;49.662;8.408;2023-04-07T14:50:25;7.50;;;6.70;;
69172;SDS011;56280;49.662;8.408;2023-04-07T14:52:50;8.60;;;7.70;;
69172;SDS011;56280;49.662;8.408;2023-04-07T14:55:15;7.83;;;7.03;;